sensor_id;sensor_type;location;lat;lon;timestamp;P1;durP1;ratioP1;P2;durP2;ratioP2
7454;SDS011;3769;51.208;4.454;2023-10-31T00:01:57;52.8;;;38.9;;
7454;SDS011;3769;51.208;4.454;2023-10-31T00:06:57;49.4;;;40.4;;
7454;SDS011;3769;51.208;4.454;2023-10-31T00:11:58;50.6;;;42.1;;
7454;SDS011;3769;51.208;4.454;2023-10-31T00:16:58;55.3;;;43;;
7454;SDS011;3769;51.208;4.454;2023-10-31T00:21:57;49.2;;;42.8;;
7454;SDS011;3769;51.208;4.454;2023-10-31T00:26:58;55.7;;;44.5;;
7454;SDS011;3769;51.208;4.454;2023-10-31T00:31:57;48.4;;;42.9;;
7454;SDS011;3769;51.208;4.454;2023-10-31T00:36:58;48.1;;;42.3;;
7454;SDS011;3769;51.208;4.454;2023-10-31T00:41:57;47;;;42.2;;
7454;SDS011;3769;51.208;4.454;2023-10-31T00:46:57;47.4;;;42.2;;
7454;SDS011;3769;51.208;4.454;2023-10-31T00:51:57;46.7;;;41.8;;
7454;SDS011;3769;51.208;4.454;2023-10-31T00:56:57;47;;;42;;
7454;SDS011;3769;51.208;4.454;2023-10-31T01:01:57;47.7;;;41.2;;
7454;SDS011;3769;51.208;4.454;2023-10-31T01:06:57;47.2;;;40.8;;
7454;SDS011;3769;51.208;4.454;2023-10-31T01:11:57;47.7;;;42.2;;
7454;SDS011;3769;51.208;4.454;2023-10-31T01:16:57;49.2;;;40.7;;
7454;SDS011;3769;51.208;4.454;2023-10-31T01:21:57;48.2;;;41.7;;
7454;SDS011;3769;51.208;4.454;2023-10-31T01:26:57;48;;;40.1;;
7454;SDS011;3769;51.208;4.454;2023-10-31T01:31:57;44.8;;;39.7;;
7454;SDS011;3769;51.208;4.454;2023-10-31T01:36:57;43.8;;;39.1;;
7454;SDS011;3769;51.208;4.454;2023-10-31T01:41:57;42.9;;;36.9;;
7454;SDS011;3769;51.208;4.454;2023-10-31T01:46:57;39.9;;;35.6;;
7454;SDS011;3769;51.208;4.454;2023-10-31T01:51:58;39.3;;;35.1;;
7454;SDS011;3769;51.208;4.454;2023-10-31T01:56:58;38.2;;;34.2;;
7454;SDS011;3769;51.208;4.454;2023-10-31T02:01:57;85.4;;;79.9;;
7454;SDS011;3769;51.208;4.454;2023-10-31T02:06:57;37.2;;;34;;
7454;SDS011;3769;51.208;4.454;2023-10-31T02:11:57;37.5;;;34.2;;
7454;SDS011;3769;51.208;4.454;2023-10-31T02:16:57;36;;;32.6;;
7454;SDS011;3769;51.208;4.454;2023-10-31T02:21:57;34.3;;;31.1;;
7454;SDS011;3769;51.208;4.454;2023-10-31T02:26:57;38.4;;;34.9;;
7454;SDS011;3769;51.208;4.454;2023-10-31T02:31:57;39.1;;;35;;
7454;SDS011;3769;51.208;4.454;2023-10-31T02:36:57;42.2;;;37.9;;
7454;SDS011;3769;51.208;4.454;2023-10-31T02:41:57;41.4;;;37.1;;
7454;SDS011;3769;51.208;4.454;2023-10-31T02:46:57;37.3;;;33.7;;
7454;SDS011;3769;51.208;4.454;2023-10-31T02:51:57;35.2;;;31.8;;
7454;SDS011;3769;51.208;4.454;2023-10-31T02:56:58;36;;;32.4;;
7454;SDS011;3769;51.208;4.454;2023-10-31T03:01:58;34.6;;;31.3;;
7454;SDS011;3769;51.208;4.454;2023-10-31T03:06:57;35.8;;;32.2;;
7454;SDS011;3769;51.208;4.454;2023-10-31T03:11:57;32.7;;;29.9;;
7454;SDS011;3769;51.208;4.454;2023-10-31T03:16:57;34.1;;;30.4;;
7454;SDS011;3769;51.208;4.454;2023-10-31T03:21:57;35.4;;;31.9;;
7454;SDS011;3769;51.208;4.454;2023-10-31T03:26:58;35.7;;;32.5;;
7454;SDS011;3769;51.208;4.454;2023-10-31T03:31:57;34.4;;;31.2;;
7454;SDS011;3769;51.208;4.454;2023-10-31T03:36:57;35.7;;;32.4;;
7454;SDS011;3769;51.208;4.454;2023-10-31T03:41:57;34.7;;;31.4;;
7454;SDS011;3769;51.208;4.454;2023-10-31T03:46:57;35.1;;;31.9;;
7454;SDS011;3769;51.208;4.454;2023-10-31T03:51:57;33.8;;;30.8;;
7454;SDS011;3769;51.208;4.454;2023-10-31T03:56:57;30.9;;;28.2;;
7454;SDS011;3769;51.208;4.454;2023-10-31T04:01:57;28.4;;;26;;
7454;SDS011;3769;51.208;4.454;2023-10-31T04:06:57;28.5;;;26.1;;
7454;SDS011;3769;51.208;4.454;2023-10-31T04:11:57;27.5;;;25.5;;
7454;SDS011;3769;51.208;4.454;2023-10-31T04:16:57;26.1;;;24;;
7454;SDS011;3769;51.208;4.454;2023-10-31T04:21:57;26.2;;;24.3;;
7454;SDS011;3769;51.208;4.454;2023-10-31T04:26:57;26.2;;;23.9;;
7454;SDS011;3769;51.208;4.454;2023-10-31T04:31:57;24.8;;;23.1;;
7454;SDS011;3769;51.208;4.454;2023-10-31T04:36:57;24.8;;;23;;
7454;SDS011;3769;51.208;4.454;2023-10-31T04:41:57;25.1;;;23;;
7454;SDS011;3769;51.208;4.454;2023-10-31T04:46:58;23.6;;;21.9;;
7454;SDS011;3769;51.208;4.454;2023-10-31T04:51:57;20.5;;;19.1;;
7454;SDS011;3769;51.208;4.454;2023-10-31T04:56:57;17.8;;;16.5;;
7454;SDS011;3769;51.208;4.454;2023-10-31T05:01:57;18.6;;;17.2;;
7454;SDS011;3769;51.208;4.454;2023-10-31T05:06:58;18.6;;;17.4;;
7454;SDS011;3769;51.208;4.454;2023-10-31T05:11:57;19.5;;;17.7;;
7454;SDS011;3769;51.208;4.454;2023-10-31T05:16:57;19.1;;;17.8;;
7454;SDS011;3769;51.208;4.454;2023-10-31T05:21:58;20.5;;;18.5;;
7454;SDS011;3769;51.208;4.454;2023-10-31T05:26:57;19.4;;;18;;
7454;SDS011;3769;51.208;4.454;2023-10-31T05:31:57;18.5;;;17;;
7454;SDS011;3769;51.208;4.454;2023-10-31T05:36:57;18.9;;;17.7;;
7454;SDS011;3769;51.208;4.454;2023-10-31T05:41:57;17.9;;;16.5;;
7454;SDS011;3769;51.208;4.454;2023-10-31T05:46:57;18;;;16.8;;
7454;SDS011;3769;51.208;4.454;2023-10-31T05:51:57;19.4;;;18.1;;
7454;SDS011;3769;51.208;4.454;2023-10-31T05:56:57;20.6;;;19.2;;
7454;SDS011;3769;51.208;4.454;2023-10-31T06:01:58;19.9;;;18.5;;
7454;SDS011;3769;51.208;4.454;2023-10-31T06:06:57;21.5;;;19.8;;
7454;SDS011;3769;51.208;4.454;2023-10-31T06:11:57;23.4;;;21.7;;
7454;SDS011;3769;51.208;4.454;2023-10-31T06:16:58;24;;;22.3;;
7454;SDS011;3769;51.208;4.454;2023-10-31T06:21:58;23.9;;;22.2;;
7454;SDS011;3769;51.208;4.454;2023-10-31T06:26:58;26.6;;;24.4;;
7454;SDS011;3769;51.208;4.454;2023-10-31T06:31:58;26.6;;;24.2;;
7454;SDS011;3769;51.208;4.454;2023-10-31T06:36:58;28;;;25.6;;
7454;SDS011;3769;51.208;4.454;2023-10-31T06:41:57;27.2;;;24.9;;
7454;SDS011;3769;51.208;4.454;2023-10-31T06:46:58;31.2;;;28.8;;
7454;SDS011;3769;51.208;4.454;2023-10-31T06:51:57;29.3;;;27;;
7454;SDS011;3769;51.208;4.454;2023-10-31T06:56:58;32.6;;;29.5;;
7454;SDS011;3769;51.208;4.454;2023-10-31T07:01:58;32.5;;;29.8;;
7454;SDS011;3769;51.208;4.454;2023-10-31T07:06:57;32.6;;;29.8;;
7454;SDS011;3769;51.208;4.454;2023-10-31T07:11:58;32.2;;;29.4;;
7454;SDS011;3769;51.208;4.454;2023-10-31T07:16:58;33.9;;;31.1;;
7454;SDS011;3769;51.208;4.454;2023-10-31T07:21:58;32.4;;;29.7;;
7454;SDS011;3769;51.208;4.454;2023-10-31T07:26:58;31.7;;;29;;
7454;SDS011;3769;51.208;4.454;2023-10-31T07:31:58;31.8;;;29;;
7454;SDS011;3769;51.208;4.454;2023-10-31T07:36:58;32.7;;;29.9;;
7454;SDS011;3769;51.208;4.454;2023-10-31T07:41:58;33.3;;;30.5;;
7454;SDS011;3769;51.208;4.454;2023-10-31T07:46:58;33.4;;;30.7;;
7454;SDS011;3769;51.208;4.454;2023-10-31T07:51:58;32.8;;;30.1;;
7454;SDS011;3769;51.208;4.454;2023-10-31T07:56:58;34.1;;;31.3;;
7454;SDS011;3769;51.208;4.454;2023-10-31T08:01:58;35.5;;;32.5;;
7454;SDS011;3769;51.208;4.454;2023-10-31T08:06:58;31.4;;;28.7;;
7454;SDS011;3769;51.208;4.454;2023-10-31T08:11:58;33.6;;;30.9;;
7454;SDS011;3769;51.208;4.454;2023-10-31T08:16:58;34.2;;;31.4;;
7454;SDS011;3769;51.208;4.454;2023-10-31T08:21:58;30.8;;;28.3;;
7454;SDS011;3769;51.208;4.454;2023-10-31T08:26:58;32.5;;;29.6;;
7454;SDS011;3769;51.208;4.454;2023-10-31T08:31:58;34.6;;;31.5;;
7454;SDS011;3769;51.208;4.454;2023-10-31T08:36:58;34.6;;;31.3;;
7454;SDS011;3769;51.208;4.454;2023-10-31T08:41:58;32.3;;;29.4;;
7454;SDS011;3769;51.208;4.454;2023-10-31T08:46:58;33;;;30.1;;
7454;SDS011;3769;51.208;4.454;2023-10-31T08:51:58;32.4;;;29.6;;
7454;SDS011;3769;51.208;4.454;2023-10-31T08:56:58;34.2;;;31;;
7454;SDS011;3769;51.208;4.454;2023-10-31T09:01:58;34.9;;;31.7;;
7454;SDS011;3769;51.208;4.454;2023-10-31T09:06:58;34.3;;;31.2;;
7454;SDS011;3769;51.208;4.454;2023-10-31T09:11:58;36.6;;;33.4;;
7454;SDS011;3769;51.208;4.454;2023-10-31T09:16:58;32.1;;;29.3;;
7454;SDS011;3769;51.208;4.454;2023-10-31T09:21:58;30.4;;;27.6;;
7454;SDS011;3769;51.208;4.454;2023-10-31T09:26:57;28.4;;;25.8;;
7454;SDS011;3769;51.208;4.454;2023-10-31T09:31:58;27.7;;;25.4;;
7454;SDS011;3769;51.208;4.454;2023-10-31T09:36:58;28.2;;;25.6;;
7454;SDS011;3769;51.208;4.454;2023-10-31T09:41:58;27.5;;;25.3;;
7454;SDS011;3769;51.208;4.454;2023-10-31T09:46:58;27.7;;;25.5;;
7454;SDS011;3769;51.208;4.454;2023-10-31T09:51:58;30;;;27.7;;
7454;SDS011;3769;51.208;4.454;2023-10-31T09:56:57;29.1;;;26.9;;
7454;SDS011;3769;51.208;4.454;2023-10-31T10:01:58;29.3;;;27.1;;
7454;SDS011;3769;51.208;4.454;2023-10-31T10:06:58;35.5;;;33.1;;
7454;SDS011;3769;51.208;4.454;2023-10-31T10:11:59;47.1;;;44;;
7454;SDS011;3769;51.208;4.454;2023-10-31T10:16:58;45.7;;;42.7;;
7454;SDS011;3769;51.208;4.454;2023-10-31T10:21:58;44.8;;;42;;
7454;SDS011;3769;51.208;4.454;2023-10-31T10:26:58;45.7;;;42.8;;
7454;SDS011;3769;51.208;4.454;2023-10-31T10:31:58;44.3;;;41.4;;
7454;SDS011;3769;51.208;4.454;2023-10-31T10:36:58;42.8;;;40;;
7454;SDS011;3769;51.208;4.454;2023-10-31T10:41:58;41.4;;;38.9;;
7454;SDS011;3769;51.208;4.454;2023-10-31T10:46:58;42.7;;;40.1;;
7454;SDS011;3769;51.208;4.454;2023-10-31T10:51:58;40.8;;;38.2;;
7454;SDS011;3769;51.208;4.454;2023-10-31T10:57:01;37;;;34.6;;
7454;SDS011;3769;51.208;4.454;2023-10-31T11:01:58;35;;;32.7;;
7454;SDS011;3769;51.208;4.454;2023-10-31T11:06:58;33.1;;;30.7;;
7454;SDS011;3769;51.208;4.454;2023-10-31T11:11:58;33.8;;;31.5;;
7454;SDS011;3769;51.208;4.454;2023-10-31T11:17:00;31.8;;;29.7;;
7454;SDS011;3769;51.208;4.454;2023-10-31T11:22:00;30.5;;;28.7;;
7454;SDS011;3769;51.208;4.454;2023-10-31T11:26:58;30.1;;;28;;
7454;SDS011;3769;51.208;4.454;2023-10-31T11:31:58;29.3;;;27.1;;
7454;SDS011;3769;51.208;4.454;2023-10-31T11:41:58;25.9;;;24.2;;
7454;SDS011;3769;51.208;4.454;2023-10-31T11:46:58;23.2;;;21.8;;
7454;SDS011;3769;51.208;4.454;2023-10-31T11:51:58;21.2;;;19.5;;
7454;SDS011;3769;51.208;4.454;2023-10-31T11:56:58;21.2;;;19.2;;
7454;SDS011;3769;51.208;4.454;2023-10-31T12:01:58;20.8;;;19.1;;
7454;SDS011;3769;51.208;4.454;2023-10-31T12:06:58;20.2;;;18.5;;
7454;SDS011;3769;51.208;4.454;2023-10-31T12:11:58;19.7;;;18.1;;
7454;SDS011;3769;51.208;4.454;2023-10-31T12:17:03;21;;;18.3;;
7454;SDS011;3769;51.208;4.454;2023-10-31T12:21:58;19.4;;;17.9;;
7454;SDS011;3769;51.208;4.454;2023-10-31T12:27:00;22.2;;;20.3;;
7454;SDS011;3769;51.208;4.454;2023-10-31T12:31:58;23.9;;;21.9;;
7454;SDS011;3769;51.208;4.454;2023-10-31T12:36:58;26.4;;;24.5;;
7454;SDS011;3769;51.208;4.454;2023-10-31T12:41:58;31.1;;;28.9;;
7454;SDS011;3769;51.208;4.454;2023-10-31T12:46:58;32.2;;;30.2;;
7454;SDS011;3769;51.208;4.454;2023-10-31T12:52:00;37;;;34.3;;
7454;SDS011;3769;51.208;4.454;2023-10-31T12:56:58;37.9;;;35.4;;
7454;SDS011;3769;51.208;4.454;2023-10-31T13:01:58;37.7;;;35.1;;
7454;SDS011;3769;51.208;4.454;2023-10-31T13:06:59;36.3;;;33.6;;
7454;SDS011;3769;51.208;4.454;2023-10-31T13:12:00;34.8;;;32.5;;
7454;SDS011;3769;51.208;4.454;2023-10-31T13:16:58;35.6;;;32.9;;
7454;SDS011;3769;51.208;4.454;2023-10-31T13:21:58;35;;;32.3;;
7454;SDS011;3769;51.208;4.454;2023-10-31T13:26:58;33.5;;;30.9;;
7454;SDS011;3769;51.208;4.454;2023-10-31T13:31:58;32.7;;;30.3;;
7454;SDS011;3769;51.208;4.454;2023-10-31T13:36:58;30.1;;;28.1;;
7454;SDS011;3769;51.208;4.454;2023-10-31T13:41:58;31.8;;;29.5;;
7454;SDS011;3769;51.208;4.454;2023-10-31T13:46:58;31.8;;;29.8;;
7454;SDS011;3769;51.208;4.454;2023-10-31T13:51:58;31.6;;;29.5;;
7454;SDS011;3769;51.208;4.454;2023-10-31T13:56:58;31.6;;;29.5;;
7454;SDS011;3769;51.208;4.454;2023-10-31T14:01:58;30.4;;;28.2;;
7454;SDS011;3769;51.208;4.454;2023-10-31T14:06:58;32;;;29.6;;
7454;SDS011;3769;51.208;4.454;2023-10-31T14:11:58;34.2;;;31.9;;
7454;SDS011;3769;51.208;4.454;2023-10-31T14:16:58;34.5;;;32.3;;
7454;SDS011;3769;51.208;4.454;2023-10-31T14:21:58;33.4;;;31.1;;
7454;SDS011;3769;51.208;4.454;2023-10-31T14:26:58;32.9;;;30.7;;
7454;SDS011;3769;51.208;4.454;2023-10-31T14:32:05;27.8;;;26.1;;
7454;SDS011;3769;51.208;4.454;2023-10-31T14:36:58;27.6;;;25.9;;
7454;SDS011;3769;51.208;4.454;2023-10-31T14:41:58;27.3;;;25.5;;
7454;SDS011;3769;51.208;4.454;2023-10-31T14:46:58;25;;;23.5;;
7454;SDS011;3769;51.208;4.454;2023-10-31T14:51:58;25.8;;;24.3;;
7454;SDS011;3769;51.208;4.454;2023-10-31T14:56:58;24.9;;;23.4;;
7454;SDS011;3769;51.208;4.454;2023-10-31T15:01:58;24.8;;;23.2;;
7454;SDS011;3769;51.208;4.454;2023-10-31T15:06:58;26.9;;;25.4;;
7454;SDS011;3769;51.208;4.454;2023-10-31T15:11:58;28.6;;;26.8;;
7454;SDS011;3769;51.208;4.454;2023-10-31T15:16:58;29;;;27.2;;
7454;SDS011;3769;51.208;4.454;2023-10-31T15:21:58;29.7;;;27.7;;
7454;SDS011;3769;51.208;4.454;2023-10-31T15:26:58;29.9;;;28;;
7454;SDS011;3769;51.208;4.454;2023-10-31T15:31:58;30.1;;;28.1;;
7454;SDS011;3769;51.208;4.454;2023-10-31T15:36:58;29.9;;;28;;
7454;SDS011;3769;51.208;4.454;2023-10-31T15:41:58;28.7;;;26.5;;
7454;SDS011;3769;51.208;4.454;2023-10-31T15:46:58;29.4;;;27.3;;
7454;SDS011;3769;51.208;4.454;2023-10-31T15:51:58;30.1;;;28;;
7454;SDS011;3769;51.208;4.454;2023-10-31T15:56:58;29.7;;;27.8;;
7454;SDS011;3769;51.208;4.454;2023-10-31T16:01:58;31.3;;;29.4;;
7454;SDS011;3769;51.208;4.454;2023-10-31T16:06:58;34;;;31.7;;
7454;SDS011;3769;51.208;4.454;2023-10-31T16:11:58;37.3;;;34.4;;
7454;SDS011;3769;51.208;4.454;2023-10-31T16:16:58;29.4;;;27.4;;
7454;SDS011;3769;51.208;4.454;2023-10-31T16:21:58;27.8;;;25.5;;
7454;SDS011;3769;51.208;4.454;2023-10-31T16:26:58;27.4;;;25.3;;
7454;SDS011;3769;51.208;4.454;2023-10-31T16:31:58;29.6;;;27.4;;
7454;SDS011;3769;51.208;4.454;2023-10-31T16:36:58;38;;;35.4;;
7454;SDS011;3769;51.208;4.454;2023-10-31T16:41:58;41.5;;;38.3;;
7454;SDS011;3769;51.208;4.454;2023-10-31T16:46:58;43.2;;;40.4;;
7454;SDS011;3769;51.208;4.454;2023-10-31T16:51:58;44.1;;;41.5;;
7454;SDS011;3769;51.208;4.454;2023-10-31T16:56:58;43.6;;;40.8;;
7454;SDS011;3769;51.208;4.454;2023-10-31T17:01:58;44.1;;;41.1;;
7454;SDS011;3769;51.208;4.454;2023-10-31T17:06:58;41.7;;;39.2;;
7454;SDS011;3769;51.208;4.454;2023-10-31T17:11:58;42.7;;;39.9;;
7454;SDS011;3769;51.208;4.454;2023-10-31T17:16:58;42.3;;;39.5;;
7454;SDS011;3769;51.208;4.454;2023-10-31T17:21:58;41.6;;;39;;
7454;SDS011;3769;51.208;4.454;2023-10-31T17:26:58;42.5;;;39.6;;
7454;SDS011;3769;51.208;4.454;2023-10-31T17:31:58;43.4;;;40.5;;
7454;SDS011;3769;51.208;4.454;2023-10-31T17:36:58;43.2;;;40.3;;
7454;SDS011;3769;51.208;4.454;2023-10-31T17:41:58;40.5;;;37.7;;
7454;SDS011;3769;51.208;4.454;2023-10-31T17:46:58;37.4;;;34.8;;
7454;SDS011;3769;51.208;4.454;2023-10-31T17:51:58;37;;;34.5;;
7454;SDS011;3769;51.208;4.454;2023-10-31T17:56:58;40.2;;;37.5;;
7454;SDS011;3769;51.208;4.454;2023-10-31T18:01:58;37.9;;;35.4;;
7454;SDS011;3769;51.208;4.454;2023-10-31T18:06:58;36.4;;;33.6;;
7454;SDS011;3769;51.208;4.454;2023-10-31T18:11:58;38.1;;;35.5;;
7454;SDS011;3769;51.208;4.454;2023-10-31T18:16:58;36.7;;;33.8;;
7454;SDS011;3769;51.208;4.454;2023-10-31T18:21:58;35.5;;;33;;
7454;SDS011;3769;51.208;4.454;2023-10-31T18:26:58;32.9;;;30.3;;
7454;SDS011;3769;51.208;4.454;2023-10-31T18:31:58;32.8;;;29.8;;
7454;SDS011;3769;51.208;4.454;2023-10-31T18:36:58;31;;;28.8;;
7454;SDS011;3769;51.208;4.454;2023-10-31T18:41:58;29;;;27;;
7454;SDS011;3769;51.208;4.454;2023-10-31T18:46:58;30.5;;;27.9;;
7454;SDS011;3769;51.208;4.454;2023-10-31T18:51:58;29.6;;;27.4;;
7454;SDS011;3769;51.208;4.454;2023-10-31T18:56:58;29.2;;;27.2;;
7454;SDS011;3769;51.208;4.454;2023-10-31T19:01:58;31.2;;;29;;
7454;SDS011;3769;51.208;4.454;2023-10-31T19:06:58;31.8;;;29.3;;
7454;SDS011;3769;51.208;4.454;2023-10-31T19:11:58;29.9;;;27.7;;
7454;SDS011;3769;51.208;4.454;2023-10-31T19:16:58;28.8;;;26.7;;
7454;SDS011;3769;51.208;4.454;2023-10-31T19:21:58;31.6;;;29.2;;
7454;SDS011;3769;51.208;4.454;2023-10-31T19:26:58;28.8;;;26.7;;
7454;SDS011;3769;51.208;4.454;2023-10-31T19:31:58;27.6;;;25.6;;
7454;SDS011;3769;51.208;4.454;2023-10-31T19:36:58;28;;;25.8;;
7454;SDS011;3769;51.208;4.454;2023-10-31T19:41:58;28.5;;;26.3;;
7454;SDS011;3769;51.208;4.454;2023-10-31T19:46:58;30.6;;;28.1;;
7454;SDS011;3769;51.208;4.454;2023-10-31T19:51:58;30.2;;;28;;
7454;SDS011;3769;51.208;4.454;2023-10-31T19:56:58;30.3;;;27.7;;
7454;SDS011;3769;51.208;4.454;2023-10-31T20:01:58;28.6;;;26.5;;
7454;SDS011;3769;51.208;4.454;2023-10-31T20:06:58;29.5;;;27;;
7454;SDS011;3769;51.208;4.454;2023-10-31T20:11:58;27.6;;;25.8;;
7454;SDS011;3769;51.208;4.454;2023-10-31T20:16:58;28.6;;;26.1;;
7454;SDS011;3769;51.208;4.454;2023-10-31T20:21:58;29;;;26.6;;
7454;SDS011;3769;51.208;4.454;2023-10-31T20:26:58;29.2;;;26.8;;
7454;SDS011;3769;51.208;4.454;2023-10-31T20:31:58;27.7;;;25.3;;
7454;SDS011;3769;51.208;4.454;2023-10-31T20:36:58;28.6;;;26.1;;
7454;SDS011;3769;51.208;4.454;2023-10-31T20:41:58;28.2;;;25.4;;
7454;SDS011;3769;51.208;4.454;2023-10-31T20:46:58;27.1;;;24.9;;
7454;SDS011;3769;51.208;4.454;2023-10-31T20:51:58;28.1;;;25.8;;
7454;SDS011;3769;51.208;4.454;2023-10-31T20:56:58;27.6;;;25.1;;
7454;SDS011;3769;51.208;4.454;2023-10-31T21:01:58;27.6;;;25.5;;
7454;SDS011;3769;51.208;4.454;2023-10-31T21:06:58;27.7;;;25.5;;
7454;SDS011;3769;51.208;4.454;2023-10-31T21:11:58;27.7;;;25.4;;
7454;SDS011;3769;51.208;4.454;2023-10-31T21:16:58;28.1;;;25.7;;
7454;SDS011;3769;51.208;4.454;2023-10-31T21:21:58;29.8;;;27.2;;
7454;SDS011;3769;51.208;4.454;2023-10-31T21:26:58;28.6;;;26.1;;
7454;SDS011;3769;51.208;4.454;2023-10-31T21:31:58;27.7;;;25.5;;
7454;SDS011;3769;51.208;4.454;2023-10-31T21:36:58;27.4;;;25.6;;
7454;SDS011;3769;51.208;4.454;2023-10-31T21:41:58;27.9;;;25.4;;
7454;SDS011;3769;51.208;4.454;2023-10-31T21:46:58;31.3;;;28.8;;
7454;SDS011;3769;51.208;4.454;2023-10-31T21:51:58;28.2;;;25.9;;
7454;SDS011;3769;51.208;4.454;2023-10-31T21:56:58;28.2;;;25.9;;
7454;SDS011;3769;51.208;4.454;2023-10-31T22:01:58;29.1;;;27.1;;
7454;SDS011;3769;51.208;4.454;2023-10-31T22:06:58;28.3;;;25.7;;
7454;SDS011;3769;51.208;4.454;2023-10-31T22:11:58;27;;;24.6;;
7454;SDS011;3769;51.208;4.454;2023-10-31T22:16:58;26.3;;;24.4;;
7454;SDS011;3769;51.208;4.454;2023-10-31T22:21:58;28.8;;;26.4;;
7454;SDS011;3769;51.208;4.454;2023-10-31T22:26:58;27.9;;;25.3;;
7454;SDS011;3769;51.208;4.454;2023-10-31T22:31:58;26.9;;;24.8;;
7454;SDS011;3769;51.208;4.454;2023-10-31T22:36:58;30.2;;;27.3;;
7454;SDS011;3769;51.208;4.454;2023-10-31T22:41:58;27.7;;;25.3;;
7454;SDS011;3769;51.208;4.454;2023-10-31T22:46:58;29.5;;;26.9;;
7454;SDS011;3769;51.208;4.454;2023-10-31T22:51:58;29.8;;;27.4;;
7454;SDS011;3769;51.208;4.454;2023-10-31T22:56:58;30.7;;;28.1;;
7454;SDS011;3769;51.208;4.454;2023-10-31T23:01:58;30.7;;;28.3;;
7454;SDS011;3769;51.208;4.454;2023-10-31T23:06:58;30;;;27.9;;
7454;SDS011;3769;51.208;4.454;2023-10-31T23:11:58;29.1;;;27.1;;
7454;SDS011;3769;51.208;4.454;2023-10-31T23:16:58;29.2;;;26.8;;
7454;SDS011;3769;51.208;4.454;2023-10-31T23:21:58;28.5;;;26.4;;
7454;SDS011;3769;51.208;4.454;2023-10-31T23:26:58;28.9;;;26.8;;
7454;SDS011;3769;51.208;4.454;2023-10-31T23:31:58;30.5;;;28.2;;
7454;SDS011;3769;51.208;4.454;2023-10-31T23:36:58;30.8;;;28.5;;
7454;SDS011;3769;51.208;4.454;2023-10-31T23:41:58;30.6;;;28.6;;
7454;SDS011;3769;51.208;4.454;2023-10-31T23:46:58;32.3;;;30;;
7454;SDS011;3769;51.208;4.454;2023-10-31T23:51:58;33.8;;;31.4;;
7454;SDS011;3769;51.208;4.454;2023-10-31T23:56:58;34;;;31.9;;
